sensor_id;sensor_type;location;lat;lon;timestamp;temperature;humidity
66831;DHT22;53739;44.224;22.528;2023-03-01T00:01:53;154.00;2252.80
66831;DHT22;53739;44.224;22.528;2023-03-01T00:04:19;154.00;2252.80
66831;DHT22;53739;44.224;22.528;2023-03-01T00:06:44;154.00;2252.80
66831;DHT22;53739;44.224;22.528;2023-03-01T00:09:14;154.10;2252.80
66831;DHT22;53739;44.224;22.528;2023-03-01T00:11:41;154.10;2252.80
66831;DHT22;53739;44.224;22.528;2023-03-01T00:14:07;154.10;2252.80
66831;DHT22;53739;44.224;22.528;2023-03-01T00:16:35;154.10;2252.80
66831;DHT22;53739;44.224;22.528;2023-03-01T00:19:01;154.10;2252.80
66831;DHT22;53739;44.224;22.528;2023-03-01T00:21:27;154.10;2252.80
66831;DHT22;53739;44.224;22.528;2023-03-01T00:23:53;154.00;2252.80
66831;DHT22;53739;44.224;22.528;2023-03-01T00:26:21;153.90;2252.80
66831;DHT22;53739;44.224;22.528;2023-03-01T00:28:47;153.90;2252.80
66831;DHT22;53739;44.224;22.528;2023-03-01T00:31:15;153.90;2252.80
66831;DHT22;53739;44.224;22.528;2023-03-01T00:33:42;153.90;2252.80
66831;DHT22;53739;44.224;22.528;2023-03-01T00:36:10;153.90;2252.80
66831;DHT22;53739;44.224;22.528;2023-03-01T00:38:38;153.90;2252.80
66831;DHT22;53739;44.224;22.528;2023-03-01T00:41:09;153.90;2252.80
66831;DHT22;53739;44.224;22.528;2023-03-01T00:43:35;154.00;2252.80
66831;DHT22;53739;44.224;22.528;2023-03-01T00:46:06;154.00;2252.80
66831;DHT22;53739;44.224;22.528;2023-03-01T00:48:32;154.00;2252.80
66831;DHT22;53739;44.224;22.528;2023-03-01T00:51:07;154.00;2252.80
66831;DHT22;53739;44.224;22.528;2023-03-01T00:53:34;154.00;2252.80
66831;DHT22;53739;44.224;22.528;2023-03-01T00:56:01;154.00;2252.80
66831;DHT22;53739;44.224;22.528;2023-03-01T00:58:27;154.00;2252.80
66831;DHT22;53739;44.224;22.528;2023-03-01T01:00:53;154.00;2252.80
66831;DHT22;53739;44.224;22.528;2023-03-01T01:03:19;154.00;2252.80
66831;DHT22;53739;44.224;22.528;2023-03-01T01:05:45;154.00;2252.80
66831;DHT22;53739;44.224;22.528;2023-03-01T01:08:11;154.00;2252.80
66831;DHT22;53739;44.224;22.528;2023-03-01T01:10:37;154.00;2252.80
66831;DHT22;53739;44.224;22.528;2023-03-01T01:13:03;154.00;2252.80
66831;DHT22;53739;44.224;22.528;2023-03-01T01:15:33;154.00;2252.80
66831;DHT22;53739;44.224;22.528;2023-03-01T01:17:58;154.00;2252.80
66831;DHT22;53739;44.224;22.528;2023-03-01T01:20:24;154.00;2252.80
66831;DHT22;53739;44.224;22.528;2023-03-01T01:22:50;154.00;2252.80
66831;DHT22;53739;44.224;22.528;2023-03-01T01:25:16;154.00;2252.80
66831;DHT22;53739;44.224;22.528;2023-03-01T01:27:42;153.90;2252.80
66831;DHT22;53739;44.224;22.528;2023-03-01T01:30:09;153.90;2252.80
66831;DHT22;53739;44.224;22.528;2023-03-01T01:32:34;153.90;2252.80
66831;DHT22;53739;44.224;22.528;2023-03-01T01:35:01;153.90;2252.80
66831;DHT22;53739;44.224;22.528;2023-03-01T01:37:27;153.90;2252.80
66831;DHT22;53739;44.224;22.528;2023-03-01T01:40:00;153.90;2252.80
66831;DHT22;53739;44.224;22.528;2023-03-01T01:42:26;153.90;2252.80
66831;DHT22;53739;44.224;22.528;2023-03-01T01:47:50;154.00;2252.80
66831;DHT22;53739;44.224;22.528;2023-03-01T01:50:17;154.00;2252.80
66831;DHT22;53739;44.224;22.528;2023-03-01T01:52:45;154.00;2252.80
66831;DHT22;53739;44.224;22.528;2023-03-01T01:55:20;154.00;2252.80
66831;DHT22;53739;44.224;22.528;2023-03-01T01:57:58;154.00;2252.80
66831;DHT22;53739;44.224;22.528;2023-03-01T02:00:28;154.00;2252.80
66831;DHT22;53739;44.224;22.528;2023-03-01T02:02:59;153.90;2252.80
66831;DHT22;53739;44.224;22.528;2023-03-01T02:08:06;153.90;2252.80
66831;DHT22;53739;44.224;22.528;2023-03-01T02:10:33;153.90;2252.80
66831;DHT22;53739;44.224;22.528;2023-03-01T02:13:00;153.90;2252.80
66831;DHT22;53739;44.224;22.528;2023-03-01T02:15:27;153.90;2252.80
66831;DHT22;53739;44.224;22.528;2023-03-01T02:17:56;153.90;2252.80
66831;DHT22;53739;44.224;22.528;2023-03-01T02:20:49;153.90;2252.80
66831;DHT22;53739;44.224;22.528;2023-03-01T02:23:16;153.90;2252.80
66831;DHT22;53739;44.224;22.528;2023-03-01T02:26:02;153.90;2252.80
66831;DHT22;53739;44.224;22.528;2023-03-01T02:28:37;154.00;2252.80
66831;DHT22;53739;44.224;22.528;2023-03-01T02:31:07;153.90;2252.80
66831;DHT22;53739;44.224;22.528;2023-03-01T02:33:52;153.90;2252.80
66831;DHT22;53739;44.224;22.528;2023-03-01T02:36:24;153.90;2252.80
66831;DHT22;53739;44.224;22.528;2023-03-01T02:38:53;153.90;2252.80
66831;DHT22;53739;44.224;22.528;2023-03-01T02:41:21;153.90;2252.80
66831;DHT22;53739;44.224;22.528;2023-03-01T02:43:47;153.90;2252.80
66831;DHT22;53739;44.224;22.528;2023-03-01T02:46:22;153.90;2252.80
66831;DHT22;53739;44.224;22.528;2023-03-01T02:48:53;154.00;2252.80
66831;DHT22;53739;44.224;22.528;2023-03-01T02:51:58;154.00;2252.80
66831;DHT22;53739;44.224;22.528;2023-03-01T02:54:33;154.00;2252.80
66831;DHT22;53739;44.224;22.528;2023-03-01T02:56:59;154.00;2252.80
66831;DHT22;53739;44.224;22.528;2023-03-01T02:59:32;154.00;2252.80
66831;DHT22;53739;44.224;22.528;2023-03-01T03:02:05;154.00;2252.80
66831;DHT22;53739;44.224;22.528;2023-03-01T03:04:31;153.90;2252.80
66831;DHT22;53739;44.224;22.528;2023-03-01T03:06:57;153.90;2252.80
66831;DHT22;53739;44.224;22.528;2023-03-01T03:09:23;153.90;2252.80
66831;DHT22;53739;44.224;22.528;2023-03-01T03:11:49;154.00;2252.80
66831;DHT22;53739;44.224;22.528;2023-03-01T03:14:16;154.00;2252.80
66831;DHT22;53739;44.224;22.528;2023-03-01T03:16:44;154.00;2252.80
66831;DHT22;53739;44.224;22.528;2023-03-01T03:19:10;154.00;2252.80
66831;DHT22;53739;44.224;22.528;2023-03-01T03:21:37;154.00;2252.80
66831;DHT22;53739;44.224;22.528;2023-03-01T03:24:03;154.00;2252.80
66831;DHT22;53739;44.224;22.528;2023-03-01T03:26:29;154.00;2252.80
66831;DHT22;53739;44.224;22.528;2023-03-01T03:28:55;154.00;2252.80
66831;DHT22;53739;44.224;22.528;2023-03-01T03:31:21;154.00;2252.80
66831;DHT22;53739;44.224;22.528;2023-03-01T03:33:47;154.00;2252.80
66831;DHT22;53739;44.224;22.528;2023-03-01T03:36:18;153.90;2252.80
66831;DHT22;53739;44.224;22.528;2023-03-01T03:38:45;153.90;2252.80
66831;DHT22;53739;44.224;22.528;2023-03-01T03:41:11;153.90;2252.80
66831;DHT22;53739;44.224;22.528;2023-03-01T03:43:39;153.90;2252.80
66831;DHT22;53739;44.224;22.528;2023-03-01T03:46:06;153.90;2252.80
66831;DHT22;53739;44.224;22.528;2023-03-01T03:48:40;153.90;2252.80
66831;DHT22;53739;44.224;22.528;2023-03-01T03:51:09;153.90;2252.80
66831;DHT22;53739;44.224;22.528;2023-03-01T03:53:35;153.90;2252.80
66831;DHT22;53739;44.224;22.528;2023-03-01T03:56:01;153.90;2252.80
66831;DHT22;53739;44.224;22.528;2023-03-01T03:58:27;153.90;2252.80
66831;DHT22;53739;44.224;22.528;2023-03-01T04:00:55;154.00;2252.80
66831;DHT22;53739;44.224;22.528;2023-03-01T04:03:22;153.90;2252.80
66831;DHT22;53739;44.224;22.528;2023-03-01T04:05:51;153.90;2252.80
66831;DHT22;53739;44.224;22.528;2023-03-01T04:08:18;153.90;2252.80
66831;DHT22;53739;44.224;22.528;2023-03-01T04:10:47;153.80;2252.80
66831;DHT22;53739;44.224;22.528;2023-03-01T04:13:16;153.80;2252.80
66831;DHT22;53739;44.224;22.528;2023-03-01T04:15:42;153.80;2252.80
66831;DHT22;53739;44.224;22.528;2023-03-01T04:18:11;153.80;2252.80
66831;DHT22;53739;44.224;22.528;2023-03-01T04:20:38;153.80;2252.80
66831;DHT22;53739;44.224;22.528;2023-03-01T04:23:12;153.80;2252.80
66831;DHT22;53739;44.224;22.528;2023-03-01T04:25:45;153.80;2252.80
66831;DHT22;53739;44.224;22.528;2023-03-01T04:28:11;153.80;2252.80
66831;DHT22;53739;44.224;22.528;2023-03-01T04:30:37;153.80;2252.80
66831;DHT22;53739;44.224;22.528;2023-03-01T04:33:05;153.80;2252.80
66831;DHT22;53739;44.224;22.528;2023-03-01T04:35:32;153.80;2252.80
66831;DHT22;53739;44.224;22.528;2023-03-01T04:37:58;153.80;2252.80
66831;DHT22;53739;44.224;22.528;2023-03-01T04:40:24;153.80;2252.80
66831;DHT22;53739;44.224;22.528;2023-03-01T04:42:49;153.80;2252.80
66831;DHT22;53739;44.224;22.528;2023-03-01T04:45:15;153.80;2252.80
66831;DHT22;53739;44.224;22.528;2023-03-01T04:47:42;153.80;2252.80
66831;DHT22;53739;44.224;22.528;2023-03-01T04:50:10;153.80;2252.80
66831;DHT22;53739;44.224;22.528;2023-03-01T04:52:36;153.80;2252.80
66831;DHT22;53739;44.224;22.528;2023-03-01T04:55:03;153.80;2252.80
66831;DHT22;53739;44.224;22.528;2023-03-01T04:57:29;153.90;2252.80
66831;DHT22;53739;44.224;22.528;2023-03-01T04:59:55;153.90;2252.80
66831;DHT22;53739;44.224;22.528;2023-03-01T05:02:21;153.90;2252.80
66831;DHT22;53739;44.224;22.528;2023-03-01T05:04:46;153.90;2252.80
66831;DHT22;53739;44.224;22.528;2023-03-01T05:07:12;153.90;2252.80
66831;DHT22;53739;44.224;22.528;2023-03-01T05:09:38;153.90;2252.80
66831;DHT22;53739;44.224;22.528;2023-03-01T05:12:04;153.90;2252.80
66831;DHT22;53739;44.224;22.528;2023-03-01T05:14:30;153.90;2252.80
66831;DHT22;53739;44.224;22.528;2023-03-01T05:16:56;153.90;2252.80
66831;DHT22;53739;44.224;22.528;2023-03-01T05:19:30;153.90;2252.80
66831;DHT22;53739;44.224;22.528;2023-03-01T05:21:59;153.90;2252.80
66831;DHT22;53739;44.224;22.528;2023-03-01T05:24:33;154.00;2252.80
66831;DHT22;53739;44.224;22.528;2023-03-01T05:26:59;154.00;2252.80
66831;DHT22;53739;44.224;22.528;2023-03-01T05:29:26;154.00;2252.80
66831;DHT22;53739;44.224;22.528;2023-03-01T05:31:53;154.10;2252.80
66831;DHT22;53739;44.224;22.528;2023-03-01T05:34:26;154.10;2252.80
66831;DHT22;53739;44.224;22.528;2023-03-01T05:36:52;154.10;2252.80
66831;DHT22;53739;44.224;22.528;2023-03-01T05:39:24;154.10;2252.80
66831;DHT22;53739;44.224;22.528;2023-03-01T05:41:58;154.00;2252.80
66831;DHT22;53739;44.224;22.528;2023-03-01T05:44:25;154.00;2252.80
66831;DHT22;53739;44.224;22.528;2023-03-01T05:46:51;154.00;2252.80
66831;DHT22;53739;44.224;22.528;2023-03-01T05:49:17;154.00;2252.80
66831;DHT22;53739;44.224;22.528;2023-03-01T05:51:48;154.10;2252.80
66831;DHT22;53739;44.224;22.528;2023-03-01T05:54:14;154.10;2252.80
66831;DHT22;53739;44.224;22.528;2023-03-01T05:56:40;154.10;2252.80
66831;DHT22;53739;44.224;22.528;2023-03-01T05:59:06;154.10;2252.80
66831;DHT22;53739;44.224;22.528;2023-03-01T06:01:32;154.10;2252.80
66831;DHT22;53739;44.224;22.528;2023-03-01T06:03:58;154.10;2252.80
66831;DHT22;53739;44.224;22.528;2023-03-01T06:06:24;154.10;2252.80
66831;DHT22;53739;44.224;22.528;2023-03-01T06:08:51;154.00;2252.80
66831;DHT22;53739;44.224;22.528;2023-03-01T06:11:17;154.00;2252.80
66831;DHT22;53739;44.224;22.528;2023-03-01T06:13:43;154.00;2252.80
66831;DHT22;53739;44.224;22.528;2023-03-01T06:16:10;154.00;2252.80
66831;DHT22;53739;44.224;22.528;2023-03-01T06:18:36;154.00;2252.80
66831;DHT22;53739;44.224;22.528;2023-03-01T06:21:03;154.00;2252.80
66831;DHT22;53739;44.224;22.528;2023-03-01T06:23:29;153.90;2252.80
66831;DHT22;53739;44.224;22.528;2023-03-01T06:25:55;153.90;2252.80
66831;DHT22;53739;44.224;22.528;2023-03-01T06:28:21;153.90;2252.80
66831;DHT22;53739;44.224;22.528;2023-03-01T06:30:46;154.00;2252.80
66831;DHT22;53739;44.224;22.528;2023-03-01T06:33:13;154.00;2252.80
66831;DHT22;53739;44.224;22.528;2023-03-01T06:35:38;154.00;2252.80
66831;DHT22;53739;44.224;22.528;2023-03-01T06:38:04;154.00;2252.80
66831;DHT22;53739;44.224;22.528;2023-03-01T06:40:31;154.00;2252.80
66831;DHT22;53739;44.224;22.528;2023-03-01T06:42:57;154.10;2252.80
66831;DHT22;53739;44.224;22.528;2023-03-01T06:45:24;154.00;2252.80
66831;DHT22;53739;44.224;22.528;2023-03-01T06:47:50;154.00;2252.80
66831;DHT22;53739;44.224;22.528;2023-03-01T06:50:17;154.10;2252.80
66831;DHT22;53739;44.224;22.528;2023-03-01T06:52:43;154.10;2252.80
66831;DHT22;53739;44.224;22.528;2023-03-01T06:55:11;154.10;2252.80
66831;DHT22;53739;44.224;22.528;2023-03-01T06:57:37;154.10;2252.80
66831;DHT22;53739;44.224;22.528;2023-03-01T07:00:04;154.10;2252.80
66831;DHT22;53739;44.224;22.528;2023-03-01T07:02:30;154.10;2252.80
66831;DHT22;53739;44.224;22.528;2023-03-01T07:04:56;154.20;2252.80
66831;DHT22;53739;44.224;22.528;2023-03-01T07:07:21;154.20;2252.80
66831;DHT22;53739;44.224;22.528;2023-03-01T07:09:49;154.20;2252.80
66831;DHT22;53739;44.224;22.528;2023-03-01T07:12:15;154.20;2252.80
66831;DHT22;53739;44.224;22.528;2023-03-01T07:14:41;154.20;2252.80
66831;DHT22;53739;44.224;22.528;2023-03-01T07:17:07;154.10;2252.80
66831;DHT22;53739;44.224;22.528;2023-03-01T07:19:32;154.10;2252.80
66831;DHT22;53739;44.224;22.528;2023-03-01T07:21:58;154.10;2252.80
66831;DHT22;53739;44.224;22.528;2023-03-01T07:24:24;154.10;2252.80
66831;DHT22;53739;44.224;22.528;2023-03-01T07:26:50;154.10;2252.80
66831;DHT22;53739;44.224;22.528;2023-03-01T07:29:16;154.10;2252.80
66831;DHT22;53739;44.224;22.528;2023-03-01T07:31:42;154.20;2252.80
66831;DHT22;53739;44.224;22.528;2023-03-01T07:34:08;154.20;2252.80
66831;DHT22;53739;44.224;22.528;2023-03-01T07:36:33;154.20;2252.80
66831;DHT22;53739;44.224;22.528;2023-03-01T07:38:59;154.20;2252.80
66831;DHT22;53739;44.224;22.528;2023-03-01T07:41:27;154.20;2252.80
66831;DHT22;53739;44.224;22.528;2023-03-01T07:43:53;154.20;2252.80
66831;DHT22;53739;44.224;22.528;2023-03-01T07:46:19;154.20;2252.80
66831;DHT22;53739;44.224;22.528;2023-03-01T07:48:45;154.20;2252.80
66831;DHT22;53739;44.224;22.528;2023-03-01T07:51:11;154.30;2252.80
66831;DHT22;53739;44.224;22.528;2023-03-01T07:53:37;154.30;2252.80
66831;DHT22;53739;44.224;22.528;2023-03-01T07:56:11;154.30;2252.80
66831;DHT22;53739;44.224;22.528;2023-03-01T07:58:39;154.30;2252.80
66831;DHT22;53739;44.224;22.528;2023-03-01T08:01:07;154.20;2252.80
66831;DHT22;53739;44.224;22.528;2023-03-01T08:03:34;154.20;2252.80
66831;DHT22;53739;44.224;22.528;2023-03-01T08:06:01;154.20;2252.80
66831;DHT22;53739;44.224;22.528;2023-03-01T08:08:27;154.20;2252.80
66831;DHT22;53739;44.224;22.528;2023-03-01T08:10:57;154.20;2252.80
66831;DHT22;53739;44.224;22.528;2023-03-01T08:13:23;154.30;2252.80
66831;DHT22;53739;44.224;22.528;2023-03-01T08:15:49;154.30;2252.80
66831;DHT22;53739;44.224;22.528;2023-03-01T08:18:18;154.30;2252.80
66831;DHT22;53739;44.224;22.528;2023-03-01T08:20:45;154.20;2252.80
66831;DHT22;53739;44.224;22.528;2023-03-01T08:23:11;154.20;2252.80
66831;DHT22;53739;44.224;22.528;2023-03-01T08:25:37;154.20;2252.80
66831;DHT22;53739;44.224;22.528;2023-03-01T08:28:03;154.30;2252.80
66831;DHT22;53739;44.224;22.528;2023-03-01T08:30:29;154.30;2252.80
66831;DHT22;53739;44.224;22.528;2023-03-01T08:32:55;154.30;2252.80
66831;DHT22;53739;44.224;22.528;2023-03-01T08:35:21;154.30;2252.80
66831;DHT22;53739;44.224;22.528;2023-03-01T08:37:47;154.30;2252.80
66831;DHT22;53739;44.224;22.528;2023-03-01T08:40:13;154.30;2252.80
66831;DHT22;53739;44.224;22.528;2023-03-01T08:42:40;154.30;2252.80
66831;DHT22;53739;44.224;22.528;2023-03-01T08:45:06;154.30;2252.80
66831;DHT22;53739;44.224;22.528;2023-03-01T08:47:32;154.30;2252.80
66831;DHT22;53739;44.224;22.528;2023-03-01T08:49:59;154.40;2252.80
66831;DHT22;53739;44.224;22.528;2023-03-01T08:52:25;154.40;2252.80
66831;DHT22;53739;44.224;22.528;2023-03-01T08:54:52;154.40;2252.80
66831;DHT22;53739;44.224;22.528;2023-03-01T08:57:18;154.40;2252.80
66831;DHT22;53739;44.224;22.528;2023-03-01T08:59:44;154.30;2252.80
66831;DHT22;53739;44.224;22.528;2023-03-01T09:02:16;154.30;2252.80
66831;DHT22;53739;44.224;22.528;2023-03-01T09:04:42;154.40;2252.80
66831;DHT22;53739;44.224;22.528;2023-03-01T09:07:08;154.40;2252.80
66831;DHT22;53739;44.224;22.528;2023-03-01T09:09:35;154.40;2252.80
66831;DHT22;53739;44.224;22.528;2023-03-01T09:12:02;154.40;2252.80
66831;DHT22;53739;44.224;22.528;2023-03-01T09:14:27;154.30;2252.80
66831;DHT22;53739;44.224;22.528;2023-03-01T09:16:53;154.30;2252.80
66831;DHT22;53739;44.224;22.528;2023-03-01T09:19:19;154.20;2252.80
66831;DHT22;53739;44.224;22.528;2023-03-01T09:21:45;154.20;2252.80
66831;DHT22;53739;44.224;22.528;2023-03-01T09:24:19;154.30;2252.80
66831;DHT22;53739;44.224;22.528;2023-03-01T09:26:46;154.30;2252.80
66831;DHT22;53739;44.224;22.528;2023-03-01T09:29:12;154.30;2252.80
66831;DHT22;53739;44.224;22.528;2023-03-01T09:31:38;154.30;2252.80
66831;DHT22;53739;44.224;22.528;2023-03-01T09:34:05;154.30;2252.80
66831;DHT22;53739;44.224;22.528;2023-03-01T09:36:31;154.40;2252.80
66831;DHT22;53739;44.224;22.528;2023-03-01T09:38:57;154.40;2252.80
66831;DHT22;53739;44.224;22.528;2023-03-01T09:47:26;154.50;2252.80
66831;DHT22;53739;44.224;22.528;2023-03-01T09:50:04;154.50;2252.80
66831;DHT22;53739;44.224;22.528;2023-03-01T09:52:40;179.20;2252.80
66831;DHT22;53739;44.224;22.528;2023-03-01T09:55:25;179.30;2252.80
66831;DHT22;53739;44.224;22.528;2023-03-01T09:58:14;179.30;2252.80
66831;DHT22;53739;44.224;22.528;2023-03-01T10:00:48;179.30;2252.80
66831;DHT22;53739;44.224;22.528;2023-03-01T10:03:19;179.20;2252.80
66831;DHT22;53739;44.224;22.528;2023-03-01T10:08:41;179.20;2252.80
66831;DHT22;53739;44.224;22.528;2023-03-01T10:11:23;154.50;2252.80
66831;DHT22;53739;44.224;22.528;2023-03-01T10:16:52;179.30;2252.80
66831;DHT22;53739;44.224;22.528;2023-03-01T10:19:30;179.30;2252.80
66831;DHT22;53739;44.224;22.528;2023-03-01T10:22:05;179.30;2252.80
66831;DHT22;53739;44.224;22.528;2023-03-01T10:24:37;179.30;2252.80
66831;DHT22;53739;44.224;22.528;2023-03-01T10:29:59;154.50;2252.80
66831;DHT22;53739;44.224;22.528;2023-03-01T10:32:26;179.20;2252.80
66831;DHT22;53739;44.224;22.528;2023-03-01T10:34:52;179.20;2252.80
66831;DHT22;53739;44.224;22.528;2023-03-01T10:37:19;179.20;2252.80
66831;DHT22;53739;44.224;22.528;2023-03-01T10:40:08;179.20;2252.80
66831;DHT22;53739;44.224;22.528;2023-03-01T10:48:16;179.30;2252.80
66831;DHT22;53739;44.224;22.528;2023-03-01T10:50:47;179.30;2252.80
66831;DHT22;53739;44.224;22.528;2023-03-01T10:56:17;179.20;2201.60
66831;DHT22;53739;44.224;22.528;2023-03-01T10:58:59;179.20;2252.80
66831;DHT22;53739;44.224;22.528;2023-03-01T11:01:33;179.20;2252.80
66831;DHT22;53739;44.224;22.528;2023-03-01T11:06:33;179.30;2201.60
66831;DHT22;53739;44.224;22.528;2023-03-01T11:09:23;179.30;1868.80
66831;DHT22;53739;44.224;22.528;2023-03-01T11:11:54;179.40;2252.80
66831;DHT22;53739;44.224;22.528;2023-03-01T11:14:26;179.40;2252.80
66831;DHT22;53739;44.224;22.528;2023-03-01T11:17:44;179.40;2252.80
66831;DHT22;53739;44.224;22.528;2023-03-01T11:20:31;179.40;2252.80
66831;DHT22;53739;44.224;22.528;2023-03-01T11:23:08;179.40;2252.80
66831;DHT22;53739;44.224;22.528;2023-03-01T11:25:37;179.40;2252.80
66831;DHT22;53739;44.224;22.528;2023-03-01T11:28:06;179.40;2252.80
66831;DHT22;53739;44.224;22.528;2023-03-01T11:30:53;179.40;2252.80
66831;DHT22;53739;44.224;22.528;2023-03-01T11:33:49;179.40;2252.80
66831;DHT22;53739;44.224;22.528;2023-03-01T11:39:24;179.40;2252.80
66831;DHT22;53739;44.224;22.528;2023-03-01T11:42:11;179.30;2252.80
66831;DHT22;53739;44.224;22.528;2023-03-01T11:44:38;179.40;2252.80
66831;DHT22;53739;44.224;22.528;2023-03-01T11:47:14;179.40;2252.80
66831;DHT22;53739;44.224;22.528;2023-03-01T12:16:59;179.50;2252.80
66831;DHT22;53739;44.224;22.528;2023-03-01T12:33:30;179.60;2252.80
66831;DHT22;53739;44.224;22.528;2023-03-01T12:39:32;179.50;2252.80
66831;DHT22;53739;44.224;22.528;2023-03-01T12:41:40;179.50;2252.80
66831;DHT22;53739;44.224;22.528;2023-03-01T12:51:54;179.60;2252.80
66831;DHT22;53739;44.224;22.528;2023-03-01T12:54:27;179.60;2252.80
66831;DHT22;53739;44.224;22.528;2023-03-01T12:56:54;179.60;2252.80
66831;DHT22;53739;44.224;22.528;2023-03-01T12:59:38;179.60;2252.80
66831;DHT22;53739;44.224;22.528;2023-03-01T13:02:21;179.60;2252.80
66831;DHT22;53739;44.224;22.528;2023-03-01T13:07:41;179.60;1971.20
66831;DHT22;53739;44.224;22.528;2023-03-01T13:13:21;179.70;2252.80
66831;DHT22;53739;44.224;22.528;2023-03-01T13:15:48;179.70;2252.80
66831;DHT22;53739;44.224;22.528;2023-03-01T13:31:10;179.60;2252.80
66831;DHT22;53739;44.224;22.528;2023-03-01T13:33:49;179.70;2252.80
66831;DHT22;53739;44.224;22.528;2023-03-01T13:38:59;179.70;2252.80
66831;DHT22;53739;44.224;22.528;2023-03-01T13:55:21;179.70;2252.80
66831;DHT22;53739;44.224;22.528;2023-03-01T13:57:51;179.70;2252.80
66831;DHT22;53739;44.224;22.528;2023-03-01T14:00:35;179.70;2252.80
66831;DHT22;53739;44.224;22.528;2023-03-01T14:03:18;179.80;2252.80
66831;DHT22;53739;44.224;22.528;2023-03-01T14:08:28;179.80;2252.80
66831;DHT22;53739;44.224;22.528;2023-03-01T14:11:19;179.80;2252.80
66831;DHT22;53739;44.224;22.528;2023-03-01T14:14:20;179.80;2252.80
66831;DHT22;53739;44.224;22.528;2023-03-01T14:19:57;179.90;2252.80
66831;DHT22;53739;44.224;22.528;2023-03-01T14:22:30;179.90;1868.80
66831;DHT22;53739;44.224;22.528;2023-03-01T14:25:01;179.80;2252.80
66831;DHT22;53739;44.224;22.528;2023-03-01T14:27:33;179.80;2252.80
66831;DHT22;53739;44.224;22.528;2023-03-01T14:30:03;179.80;2252.80
66831;DHT22;53739;44.224;22.528;2023-03-01T14:32:31;179.90;2252.80
66831;DHT22;53739;44.224;22.528;2023-03-01T14:34:59;179.90;2252.80
66831;DHT22;53739;44.224;22.528;2023-03-01T14:39:53;179.80;2252.80
66831;DHT22;53739;44.224;22.528;2023-03-01T14:42:25;179.80;2252.80
66831;DHT22;53739;44.224;22.528;2023-03-01T14:44:54;179.80;2252.80
66831;DHT22;53739;44.224;22.528;2023-03-01T14:47:34;179.80;2252.80
66831;DHT22;53739;44.224;22.528;2023-03-01T14:52:44;179.70;2252.80
66831;DHT22;53739;44.224;22.528;2023-03-01T14:55:18;179.70;2252.80
66831;DHT22;53739;44.224;22.528;2023-03-01T14:57:44;179.70;2252.80
66831;DHT22;53739;44.224;22.528;2023-03-01T15:00:23;179.70;2252.80
66831;DHT22;53739;44.224;22.528;2023-03-01T15:02:52;179.70;2252.80
66831;DHT22;53739;44.224;22.528;2023-03-01T15:05:27;179.70;2252.80
66831;DHT22;53739;44.224;22.528;2023-03-01T15:07:54;179.70;2252.80
66831;DHT22;53739;44.224;22.528;2023-03-01T15:10:30;179.70;2252.80
66831;DHT22;53739;44.224;22.528;2023-03-01T15:13:09;179.70;2252.80
66831;DHT22;53739;44.224;22.528;2023-03-01T15:15:43;179.70;1894.40
66831;DHT22;53739;44.224;22.528;2023-03-01T15:20:46;179.70;2252.80
66831;DHT22;53739;44.224;22.528;2023-03-01T15:23:24;179.80;2252.80
66831;DHT22;53739;44.224;22.528;2023-03-01T15:25:52;179.80;2252.80
66831;DHT22;53739;44.224;22.528;2023-03-01T15:28:42;179.80;2252.80
66831;DHT22;53739;44.224;22.528;2023-03-01T15:31:21;179.80;2252.80
66831;DHT22;53739;44.224;22.528;2023-03-01T15:33:47;179.70;2252.80
66831;DHT22;53739;44.224;22.528;2023-03-01T15:39:28;179.70;2252.80
66831;DHT22;53739;44.224;22.528;2023-03-01T15:41:55;179.80;2252.80
66831;DHT22;53739;44.224;22.528;2023-03-01T15:44:30;179.70;2252.80
66831;DHT22;53739;44.224;22.528;2023-03-01T15:46:57;179.70;2252.80
66831;DHT22;53739;44.224;22.528;2023-03-01T15:49:40;179.70;2252.80
66831;DHT22;53739;44.224;22.528;2023-03-01T15:52:19;179.70;2252.80
66831;DHT22;53739;44.224;22.528;2023-03-01T15:54:47;179.70;2252.80
66831;DHT22;53739;44.224;22.528;2023-03-01T15:57:13;179.70;2252.80
66831;DHT22;53739;44.224;22.528;2023-03-01T15:59:40;179.60;2252.80
66831;DHT22;53739;44.224;22.528;2023-03-01T16:02:11;179.60;2252.80
66831;DHT22;53739;44.224;22.528;2023-03-01T16:04:38;179.70;2252.80
66831;DHT22;53739;44.224;22.528;2023-03-01T16:07:05;179.70;2252.80
66831;DHT22;53739;44.224;22.528;2023-03-01T16:09:31;179.70;2252.80
66831;DHT22;53739;44.224;22.528;2023-03-01T16:11:57;179.70;2252.80
66831;DHT22;53739;44.224;22.528;2023-03-01T16:14:23;179.70;2252.80
66831;DHT22;53739;44.224;22.528;2023-03-01T16:16:49;179.70;2252.80
66831;DHT22;53739;44.224;22.528;2023-03-01T16:19:15;179.70;2252.80
66831;DHT22;53739;44.224;22.528;2023-03-01T16:21:42;179.70;2252.80
66831;DHT22;53739;44.224;22.528;2023-03-01T16:24:09;179.70;2252.80
66831;DHT22;53739;44.224;22.528;2023-03-01T16:26:36;179.60;2252.80
66831;DHT22;53739;44.224;22.528;2023-03-01T16:29:02;179.70;2252.80
66831;DHT22;53739;44.224;22.528;2023-03-01T16:31:28;179.70;2252.80
66831;DHT22;53739;44.224;22.528;2023-03-01T16:33:55;179.70;2252.80
66831;DHT22;53739;44.224;22.528;2023-03-01T16:36:22;179.70;2252.80
66831;DHT22;53739;44.224;22.528;2023-03-01T16:38:53;179.60;2252.80
66831;DHT22;53739;44.224;22.528;2023-03-01T16:41:22;179.70;2252.80
66831;DHT22;53739;44.224;22.528;2023-03-01T16:43:48;179.60;2252.80
66831;DHT22;53739;44.224;22.528;2023-03-01T16:46:19;179.60;2252.80
66831;DHT22;53739;44.224;22.528;2023-03-01T16:48:46;179.60;2252.80
66831;DHT22;53739;44.224;22.528;2023-03-01T16:51:12;179.60;2252.80
66831;DHT22;53739;44.224;22.528;2023-03-01T16:53:38;179.70;2252.80
66831;DHT22;53739;44.224;22.528;2023-03-01T16:56:07;179.70;2252.80
66831;DHT22;53739;44.224;22.528;2023-03-01T16:58:35;179.70;2252.80
66831;DHT22;53739;44.224;22.528;2023-03-01T17:01:20;179.70;2252.80
66831;DHT22;53739;44.224;22.528;2023-03-01T17:03:49;179.70;2252.80
66831;DHT22;53739;44.224;22.528;2023-03-01T17:06:17;179.60;2252.80
66831;DHT22;53739;44.224;22.528;2023-03-01T17:08:45;179.60;2252.80